createdAt,value
2022-12-24T00:01:37.960Z,72.29
2022-12-24T00:12:06.116Z,71.95
2022-12-24T00:22:33.529Z,71.95
2022-12-24T00:33:01.882Z,71.90
2022-12-24T00:43:30.665Z,71.79
2022-12-24T00:53:58.293Z,71.86
2022-12-24T01:04:43.712Z,71.50
2022-12-24T01:15:13.885Z,71.49
2022-12-24T01:25:41.999Z,71.99
2022-12-24T01:36:10.825Z,71.81
2022-12-24T01:46:38.770Z,72.00
2022-12-24T01:57:09.860Z,72.20
2022-12-24T02:07:38.758Z,72.27
2022-12-24T02:18:08.403Z,71.75
2022-12-24T02:29:00.980Z,71.97
2022-12-24T02:39:35.051Z,72.30
2022-12-24T02:50:04.795Z,72.04
2022-12-24T03:00:42.102Z,72.19
2022-12-24T03:11:12.991Z,73.34
2022-12-24T03:21:44.580Z,75.05
2022-12-24T03:32:12.072Z,76.13
2022-12-24T03:42:40.648Z,76.95
2022-12-24T03:53:08.284Z,77.61
2022-12-24T04:03:35.799Z,77.69
2022-12-24T04:14:03.678Z,77.84
2022-12-24T04:24:31.243Z,78.06
2022-12-24T04:34:59.034Z,78.26
2022-12-24T04:45:26.641Z,78.28
2022-12-24T04:55:54.894Z,78.57
2022-12-24T05:06:25.411Z,79.07
2022-12-24T05:16:53.548Z,79.44
2022-12-24T05:27:22.031Z,79.37
2022-12-24T05:37:49.540Z,79.57
2022-12-24T05:48:17.180Z,79.67
2022-12-24T05:58:45.476Z,79.52
2022-12-24T06:09:13.041Z,79.75
2022-12-24T06:19:40.725Z,79.67
2022-12-24T06:30:10.254Z,79.51
2022-12-24T06:40:39.091Z,79.42
2022-12-24T06:51:07.238Z,79.32
2022-12-24T07:01:34.827Z,79.29
2022-12-24T07:12:02.547Z,79.47
2022-12-24T07:22:30.159Z,79.30
2022-12-24T07:32:57.917Z,79.16
2022-12-24T07:43:25.900Z,79.33
2022-12-24T07:53:53.817Z,79.17
2022-12-24T08:04:21.458Z,79.29
2022-12-24T08:14:49.207Z,79.36
2022-12-24T08:25:17.542Z,79.05
2022-12-24T08:35:50.484Z,79.17
2022-12-24T08:46:18.098Z,78.97
2022-12-24T08:56:45.800Z,79.06
2022-12-24T09:07:13.705Z,78.94
2022-12-24T09:17:41.765Z,78.97
2022-12-24T09:28:09.463Z,78.94
2022-12-24T09:38:37.809Z,78.75
2022-12-24T09:49:12.090Z,78.85
2022-12-24T09:59:45.258Z,78.88
2022-12-24T10:10:24.375Z,79.25
2022-12-24T10:21:00.191Z,79.27
2022-12-24T10:31:31.188Z,79.18
2022-12-24T10:42:03.021Z,79.01
2022-12-24T10:52:34.830Z,79.37
2022-12-24T11:03:25.623Z,79.45
2022-12-24T11:13:58.652Z,79.44
2022-12-24T11:24:30.122Z,79.48
2022-12-24T11:35:01.548Z,79.61
2022-12-24T11:45:31.266Z,79.48
2022-12-24T11:56:02.204Z,79.50
2022-12-24T12:06:34.629Z,79.68
2022-12-24T12:17:14.020Z,79.04
2022-12-24T12:27:47.386Z,78.71
2022-12-24T12:38:20.917Z,78.29
2022-12-24T12:49:03.107Z,77.93
2022-12-24T12:59:36.742Z,77.71
2022-12-24T13:10:34.050Z,77.60
2022-12-24T13:21:01.916Z,77.49
2022-12-24T13:31:31.227Z,77.18
2022-12-24T13:41:59.116Z,76.77
2022-12-24T13:52:35.334Z,76.74
2022-12-24T14:03:06.221Z,76.19
2022-12-24T14:14:10.130Z,76.14
2022-12-24T14:24:43.607Z,75.73
2022-12-24T14:35:19.101Z,75.54
2022-12-24T14:45:53.101Z,75.32
2022-12-24T14:56:22.620Z,75.09
2022-12-24T15:06:53.831Z,74.88
2022-12-24T15:17:21.678Z,74.77
2022-12-24T15:27:49.259Z,74.59
2022-12-24T15:38:27.997Z,74.48
2022-12-24T15:48:57.752Z,74.52
2022-12-24T15:59:32.468Z,74.09
2022-12-24T16:10:15.005Z,73.74
2022-12-24T16:20:47.579Z,73.85
2022-12-24T16:31:20.714Z,73.54
2022-12-24T16:42:05.885Z,72.93
2022-12-24T16:52:34.769Z,72.89
2022-12-24T17:03:02.535Z,72.46
2022-12-24T17:13:30.239Z,72.69
2022-12-24T17:23:57.796Z,72.25
2022-12-24T17:34:25.471Z,71.05
2022-12-24T17:44:53.369Z,70.98
2022-12-24T17:55:22.637Z,71.31
2022-12-24T18:05:50.335Z,71.48
2022-12-24T18:16:21.652Z,71.71
2022-12-24T18:26:49.677Z,71.98
2022-12-24T18:37:17.375Z,72.34
2022-12-24T18:47:45.615Z,72.71
2022-12-24T18:58:13.810Z,73.25
2022-12-24T19:19:29.680Z,73.67
2022-12-24T19:29:57.325Z,73.60
2022-12-24T19:40:24.969Z,73.58
2022-12-24T19:50:52.791Z,74.09
2022-12-24T20:01:22.824Z,73.40
2022-12-24T20:11:52.453Z,72.57
2022-12-24T20:22:20.162Z,72.44
2022-12-24T20:32:48.014Z,72.34
2022-12-24T20:43:18.596Z,73.31
2022-12-24T20:53:50.293Z,72.88
2022-12-24T21:04:17.849Z,72.44
2022-12-24T21:14:45.376Z,72.15
2022-12-24T21:25:14.519Z,71.72
2022-12-24T21:35:42.318Z,71.60
2022-12-24T21:46:11.532Z,71.51
2022-12-24T21:56:53.556Z,70.98
2022-12-24T22:07:42.238Z,70.40
2022-12-24T22:18:09.778Z,70.14
2022-12-24T22:28:37.228Z,70.52
2022-12-24T22:39:04.953Z,71.45
2022-12-24T22:49:33.734Z,73.04
2022-12-24T22:59:59.768Z,73.43
2022-12-24T23:10:27.544Z,73.59
2022-12-24T23:20:55.069Z,73.01
2022-12-24T23:31:23.434Z,72.68
2022-12-24T23:41:51.203Z,72.38
2022-12-24T23:52:19.302Z,72.30
